Latest Coastal Weather Observations for Cape Nelson

IDS60701

Issued at 1:51 pm CST Monday 25 September 2017 (issued every 10 minutes, with the page automatically refreshed every 10 minutes)

About coastal observations | Map of coastal stations | Coastal observations for SA | Marine services | Other Formats
Station Details ID: 090184 Name: CAPE NELSON LIGHTHOUSE Lat: -38.43 Lon: 141.54 Height: 45.4 m
Data from the previous 72 hours. | See also: Recent months at Cape Nelson
Date/Time
CST
Temp
°C
Wind Pressure Rain since
9am
mm
Weather Cloud Vis
km
Sea
Height
m
Swell
Dir  Spd
kts
Gust
kts
hPa Trend Height
m
Period
s
Dir
25/01:30pm 12.5 NNW 9 19 1012.0 - 0.0 - - - - - - -
25/01:00pm 12.7 NW 10 19 1011.9 - 0.0 - - - - - - -
25/12:30pm 12.4 NNW 11 18 1011.7 - 0.0 - - - - - - -
25/12:00pm 11.1 NNE 10 19 1011.7 - 0.0 - - - - - - -
25/11:30am 12.0 WNW 12 18 1011.4 - 0.0 - - - - - - -
25/11:00am 12.5 N 9 15 1011.1 - 0.0 - - - - - - -
25/10:30am 11.2 W 19 24 1011.0 - 0.0 - - - - - - -
25/10:08am 10.8 WNW 17 29 1010.7 - 0.0 - - - - - - -
25/10:00am 12.3 WNW 15 23 1010.3 - 0.0 - - - - - - -
25/09:30am 12.1 NNE 10 16 1010.1 - 0.0 - - - - - - -
25/09:00am 11.6 WNW 13 22 1009.6 - 0.0 - - - - - - -
25/08:30am 11.7 NNE 11 19 1009.2 - 2.0 Recent precip. - - - - - -
25/08:00am 11.1 W 14 24 1008.8 - 1.8 - - - - - - -
25/07:30am 11.1 WNW 14 23 1008.2 - 1.8 - - - - - - -
25/07:00am 10.6 W 11 16 1007.9 - 1.8 - - - - - - -
25/06:30am 10.3 WNW 11 19 1007.2 - 1.8 - - - - - - -
25/06:00am 9.8 WNW 11 16 1006.8 - 1.8 - - - - - - -
25/05:30am 10.3 WNW 10 17 1006.4 - 1.2 - - - - - - -
25/05:00am 10.6 NW 10 16 1005.9 - 1.2 - - - - - - -
25/04:30am 10.2 NNE 8 14 1005.8 - 1.2 - - - - - - -
25/04:00am 11.1 NE 8 17 1005.4 - 1.0 - - - - - - -
25/03:30am 11.2 N 8 13 1005.0 - 1.0 - - - - - - -
25/03:00am 11.2 NNW 9 16 1004.9 - 1.0 - - - - - - -
25/02:30am 11.2 NNE 8 12 1004.5 - 1.0 - - - - - - -
25/02:00am 10.9 NNE 10 15 1004.4 - 1.0 - - - - - - -
25/01:30am 11.1 ENE 10 18 1004.4 - 1.0 - - - - - - -
25/01:00am 11.5 NNW 9 17 1004.3 - 1.0 - - - - - - -
25/12:30am 11.0 NNE 9 17 1004.0 - 1.0 - - - - - - -
25/12:00am 11.2 NNE 10 15 1003.8 - 1.0 - - - - - - -
 
Date/Time
CST
Temp
°C
Wind Pressure Rain since
9am
mm
Weather Cloud Vis
km
Sea
Height
m
Swell
Dir  Spd
kts
Gust
kts
hPa Trend Height
m
Period
s
Dir
24/11:30pm 11.4 N 9 17 1003.5 - 1.0 Recent precip. - - - - - -
24/11:00pm 11.3 WNW 14 22 1003.2 - 1.0 - - - - - - -
24/10:30pm 11.7 W 15 25 1002.8 - 0.8 - - - - - - -
24/10:26pm 12.1 W 15 25 1003.0 - 0.8 - - - - - - -
24/10:13pm 12.1 WNW 14 23 1002.7 - 0.8 - - - - - - -
24/10:00pm 12.2 W 20 31 1002.6 - 0.8 - - - - - - -
24/09:59pm 12.4 W 21 31 1002.5 - 0.8 - - - - - - -
24/09:30pm 12.5 W 21 28 1002.2 - 0.8 - - - - - - -
24/09:00pm 12.7 W 24 33 1001.6 - 0.6 - - - - - - -
24/08:30pm 12.1 W 19 34 1001.2 - 0.6 - - - - - - -
24/08:00pm 12.6 W 17 27 1000.5 - 0.6 - - - - - - -
24/07:35pm 12.5 W 24 34 1000.0 - 0.6 - - - - - - -
24/07:30pm 12.7 W 25 34 999.9 - 0.6 - - - - - - -
24/07:01pm 12.8 W 25 35 999.1 - 0.6 - - - - - - -
24/07:00pm 12.8 W 26 35 999.0 - 0.6 - - - - - - -
24/06:30pm 12.8 W 29 41 998.3 - 0.6 - - - - - - -
24/06:00pm 13.1 W 28 43 997.3 - 0.6 - - - - - - -
24/05:30pm 13.4 WNW 30 43 996.7 - 0.6 - - - - - - -
24/05:00pm 13.3 WNW 28 41 996.0 - 0.6 - - - - - - -
24/04:30pm 13.2 WNW 29 42 995.4 - 0.6 - - - - - - -
24/04:00pm 14.2 WNW 30 43 994.7 - 0.6 - - - - - - -
24/03:30pm 14.3 WNW 31 46 994.4 - 0.6 - - - - - - -
24/03:00pm 14.6 WNW 29 45 994.1 - 0.6 - - - - - - -
24/02:30pm 14.9 WNW 29 41 994.2 - 0.6 - - - - - - -
24/02:00pm 15.0 WNW 30 43 994.2 - 0.6 - - - - - - -
24/01:30pm 15.0 WNW 31 46 994.3 - 0.6 - - - - - - -
24/01:00pm 15.0 NW 29 44 994.3 - 0.6 - - - - - - -
24/12:30pm 13.8 WNW 26 39 994.6 - 0.6 - - - - - - -
24/12:00pm 14.0 NW 25 37 994.8 - 0.4 - - - - - - -
24/11:30am 13.8 WNW 23 35 995.1 - 0.2 - - - - - - -
24/11:00am 15.5 WNW 23 35 995.1 - 0.2 - - - - - - -
24/10:30am 14.1 WNW 27 39 995.4 - 0.2 - - - - - - -
24/10:00am 14.1 NW 23 34 995.5 - 0.2 - - - - - - -
24/09:30am 13.0 NW 21 32 995.6 - 0.2 - - - - - - -
24/09:00am 13.2 NW 24 35 995.4 - 0.0 - - - - - - -
24/08:42am 13.4 NW 23 35 995.4 - 0.0 - - - - - - -
24/08:30am 13.2 NW 25 32 995.5 - 8.6 - - - - - - -
24/08:00am 12.3 NW 23 34 995.6 - 8.6 - - - - - - -
24/07:34am 11.7 NW 22 33 995.4 - 8.6 - - - - - - -
24/07:30am 11.8 NW 21 28 995.4 - 8.6 - - - - - - -
24/07:00am 10.9 NW 20 31 995.3 - 8.6 - - - - - - -
24/06:54am 10.7 NW 21 31 995.3 - 8.6 - - - - - - -
24/06:30am 10.0 NW 21 29 995.4 - 8.6 - - - - - - -
24/06:00am 9.7 NW 17 23 995.4 - 8.6 - - - - - - -
24/05:42am 9.8 NW 15 25 995.3 - 8.2 - - - - - - -
24/05:30am 9.7 NW 16 22 995.1 - 8.2 - - - - - - -
24/05:09am 9.7 NW 18 29 995.0 - 8.2 - - - - - - -
24/05:00am 9.7 NW 21 28 995.1 - 8.2 - - - - - - -
24/04:30am 9.9 NW 21 29 995.1 - 8.2 - - - - - - -
24/04:11am 9.5 NW 16 26 994.9 - 8.2 - - - - - - -
24/04:00am 9.4 NNW 15 23 994.7 - 8.2 - - - - - - -
24/03:30am 9.4 NNW 12 17 995.1 - 8.2 - - - - - - -
24/03:00am 11.1 NW 23 38 995.6 - 7.6 - - - - - - -
24/02:54am 11.9 NW 19 29 995.4 - 6.0 - - - - - - -
24/02:30am 11.9 NW 18 27 995.2 - 5.6 - - - - - - -
24/02:23am 11.9 NW 16 26 995.4 - 5.6 - - - - - - -
24/02:00am 11.8 NNW 15 24 995.3 - 5.6 - - - - - - -
24/01:30am 11.9 NW 17 26 996.0 - 5.6 - - - - - - -
24/01:00am 12.1 NW 18 29 996.5 - 5.6 - - - - - - -
24/12:52am 12.0 NW 18 29 996.6 - 5.6 - - - - - - -
24/12:30am 11.9 NW 20 28 996.8 - 5.6 - - - - - - -
24/12:00am 12.0 NW 21 28 997.0 - 5.6 - - - - - - -
 
Date/Time
CST
Temp
°C
Wind Pressure Rain since
9am
mm
Weather Cloud Vis
km
Sea
Height
m
Swell
Dir  Spd
kts
Gust
kts
hPa Trend Height
m
Period
s
Dir
23/11:43pm 12.7 WNW 20 30 996.9 - 5.6 - - - - - - -
23/11:30pm 12.7 WNW 21 29 996.9 - 5.6 - - - - - - -
23/11:00pm 12.7 WNW 22 29 997.3 - 5.6 - - - - - - -
23/10:40pm 12.7 WNW 23 33 997.3 - 5.6 - - - - - - -
23/10:30pm 12.5 WNW 20 28 997.4 - 5.6 - - - - - - -
23/10:03pm 12.7 WNW 20 30 997.6 - 5.6 - - - - - - -
23/10:00pm 12.8 WNW 21 30 997.6 - 5.6 - - - - - - -
23/09:45pm 13.1 WNW 22 32 997.5 - 5.6 - - - - - - -
23/09:30pm 13.0 WNW 21 29 997.6 - 5.6 - - - - - - -
23/09:00pm 13.1 WNW 20 30 997.5 - 5.6 - - - - - - -
23/08:31pm 13.1 WNW 20 33 997.3 - 5.6 - - - - - - -
23/08:30pm 13.2 WNW 20 29 997.3 - 5.6 - - - - - - -
23/08:18pm 13.2 WNW 21 31 997.1 - 5.6 - - - - - - -
23/08:00pm 13.0 WNW 21 27 996.9 - 5.6 - - - - - - -
23/07:48pm 13.0 WNW 20 30 996.9 - 5.6 - - - - - - -
23/07:30pm 13.1 WNW 20 28 996.7 - 5.6 - - - - - - -
23/07:00pm 13.3 WNW 23 34 996.2 - 5.6 - - - - - - -
23/06:51pm 13.4 WNW 24 34 996.0 - 5.6 - - - - - - -
23/06:30pm 13.5 WNW 22 29 995.7 - 5.6 - - - - - - -
23/06:00pm 13.7 WNW 24 35 995.4 - 5.6 - - - - - - -
23/05:30pm 14.1 WNW 28 38 994.9 - 5.6 - - - - - - -
23/05:00pm 14.4 WNW 23 35 994.5 - 5.6 - - - - - - -
23/04:37pm 14.6 WNW 26 40 994.2 - 5.6 - - - - - - -
23/04:30pm 14.8 WNW 25 34 994.1 - 5.6 - - - - - - -
23/04:06pm 14.7 WNW 22 34 993.9 - 5.6 - - - - - - -
23/04:00pm 14.7 WNW 22 30 993.9 - 5.6 - - - - - - -
23/03:30pm 14.0 WNW 21 31 993.6 - 5.6 - - - - - - -
23/03:03pm 13.4 WNW 21 32 993.7 - 5.4 - - - - - - -
23/03:00pm 13.6 WNW 20 29 993.6 - 5.2 - - - - - - -
23/02:54pm 13.5 WNW 18 29 993.4 - 5.0 - - - - - - -
23/02:30pm 13.3 NW 17 25 993.9 - 4.4 Rain - - - - - -
23/02:00pm 13.8 WNW 12 17 993.7 - 2.8 - - - - - - -
23/01:30pm 13.8 W 14 18 993.8 - 1.4 - - - - - - -
23/01:00pm 14.2 WNW 15 20 993.8 - 0.2 - - - - - - -
23/12:30pm 15.0 W 16 23 994.1 - 0.2 - - - - - - -
23/12:11pm 15.4 W 15 26 993.7 - 0.2 - - - - - - -
23/12:00pm 16.2 W 10 15 993.1 - 0.2 - - - - - - -
23/11:30am 17.3 NW 12 17 993.6 - 0.0 - - - - - - -
23/11:00am 19.4 WNW 10 14 993.0 - 0.0 - - - - - - -
23/10:30am 17.8 NNE 9 12 993.9 - 0.0 - - - - - - -
23/10:00am 17.3 NNE 9 13 992.6 - 0.0 - - - - - - -
23/09:30am 15.6 NNE 7 9 993.9 - 0.0 - - - - - - -
23/09:00am 14.5 NNE 8 11 993.8 - 0.0 - - - - - - -
23/08:30am 14.6 NNE 7 10 995.2 - 1.0 Recent precip. - - - - - -
23/08:00am 13.6 WNW 4 6 996.5 - 1.0 - - - - - - -
23/07:30am 13.5 N 7 10 997.5 - 0.8 - - - - - - -
23/07:00am 13.4 NNE 10 13 995.9 - 0.8 - - - - - - -
23/06:30am 13.1 NNE 7 9 996.9 - 0.8 - - - - - - -
23/06:00am 13.1 NW 7 9 997.2 - 0.8 - - - - - - -
23/05:30am 13.7 W 10 14 998.5 - 0.8 Recent precip. - - - - - -
23/05:00am 13.8 W 14 19 998.7 - 0.8 - - - - - - -
23/04:30am 13.9 WNW 15 21 1000.4 - 0.6 - - - - - - -
23/04:24am 14.0 WNW 13 18 1000.7 - 0.6 - - - - - - -
23/04:00am 13.9 WNW 10 13 998.7 - 0.6 - - - - - - -
23/03:30am 13.7 WNW 13 21 998.3 - 0.4 - - - - - - -
23/03:21am 13.9 W 10 20 999.5 - 0.0 - - - - - - -
23/03:00am 13.3 NNE 6 8 997.4 - 0.0 - - - - - - -
23/02:30am 13.6 NE 7 10 997.6 - 0.0 - - - - - - -
23/02:00am 13.8 WNW 11 13 999.3 - 0.0 - - - - - - -
23/01:30am 13.7 NW 9 12 999.5 - 0.0 - - - - - - -
23/01:00am 13.7 NW 8 10 1000.0 - 0.0 - - - - - - -
23/12:30am 14.1 NW 10 12 1000.4 - 0.0 - - - - - - -
23/12:00am 14.4 NW 9 11 1000.9 - 0.0 - - - - - - -
 
Date/Time
CST
Temp
°C
Wind Pressure Rain since
9am
mm
Weather Cloud Vis
km
Sea
Height
m
Swell
Dir  Spd
kts
Gust
kts
hPa Trend Height
m
Period
s
Dir
22/11:30pm 14.8 NW 9 12 1001.1 - 0.0 - - - - - - -
22/11:00pm 15.4 WNW 11 15 1001.3 - 0.0 - - - - - - -
22/10:30pm 16.2 WNW 11 14 1001.3 - 0.0 - - - - - - -
22/10:00pm 18.3 WNW 14 22 1001.1 - 0.0 - - - - - - -
22/09:53pm 19.2 NNW 14 25 999.7 - 0.0 - - - - - - -
22/09:30pm 19.5 N 13 19 1000.4 - 0.0 - - - - - - -
22/09:00pm 19.6 N 12 17 1000.9 - 0.0 - - - - - - -
22/08:30pm 19.2 N 12 18 1001.1 - 0.0 - - - - - - -
22/08:00pm 18.8 N 12 17 1001.4 - 0.0 - - - - - - -
22/07:30pm 18.6 N 11 15 1001.5 - 0.0 - - - - - - -
22/07:00pm 16.6 N 8 11 1001.7 - 0.0 - - - - - - -
22/06:30pm 15.7 NNE 6 7 1001.9 - 0.0 - - - - - - -
22/06:00pm 16.4 N 5 6 1002.1 - 0.0 - - - - - - -
22/05:30pm 17.5 NW 4 5 1002.1 - 0.0 - - - - - - -
22/05:00pm 17.8 NNE 9 13 1001.5 - 0.0 - - - - - - -
22/04:30pm 18.1 NE 3 4 1002.5 - 0.0 - - - - - - -
22/04:00pm 18.5 CALM 0 0 1002.7 - 0.0 - - - - - - -
22/03:30pm 17.3 SSE 5 5 1002.7 - 0.0 - - - - - - -
22/03:00pm 15.5 E 9 11 1001.7 - 0.0 - - - - - - -
22/02:30pm 16.9 SE 5 7 1003.4 - 0.0 - - - - - - -
22/02:00pm 17.1 SE 6 7 1003.5 - 0.0 - - - - - - -
22/01:30pm 17.0 E 5 7 1003.8 - 0.0 - - - - - - -

Other Formats:

Comma delimited format used in spreadsheet applications
http://www.bom.gov.au/fwo/IDS60701/IDS60701.94826.axf

JavaScript Object Notation format (JSON) in row-major order
http://www.bom.gov.au/fwo/IDS60701/IDS60701.94826.json